Time;durP1;ratioP1;P1;durP2;ratioP2;P2;SDS_P1;SDS_P2;PMS_P1;PMS_P2;Temp;Humidity;BMP_temperature;BMP_pressure;BME280_temperature;BME280_humidity;BME280_pressure;Samples;Min_cycle;Max_cycle;Signal;HPM_P1;HPM_P2
2021/07/23 00:00:53;;;;;;;11.07;3.60;;;15.50;82.80;;;;;;6181539;23;20021;-76
2021/07/23 00:03:22;;;;;;;8.23;3.67;;;15.50;83.20;;;;;;6185926;23;20240;-77
2021/07/23 00:05:49;;;;;;;7.32;3.33;;;15.50;83.60;;;;;;6185431;23;20060;-76
2021/07/23 00:08:16;;;;;;;10.55;3.63;;;15.40;83.90;;;;;;6184538;23;20017;-76
2021/07/23 00:10:43;;;;;;;8.77;3.55;;;15.40;83.80;;;;;;6185301;23;20021;-76
2021/07/23 00:13:10;;;;;;;9.90;4.03;;;15.30;84.30;;;;;;6186507;23;20024;-76
2021/07/23 00:15:37;;;;;;;7.97;3.60;;;15.30;84.30;;;;;;6185293;23;20017;-76
2021/07/23 00:18:05;;;;;;;11.27;3.97;;;15.30;84.20;;;;;;6185499;23;20104;-76
2021/07/23 00:20:33;;;;;;;7.75;3.85;;;15.20;84.70;;;;;;6184901;23;20048;-77
2021/07/23 00:23:01;;;;;;;9.73;4.47;;;15.10;84.80;;;;;;6186452;23;20047;-77
2021/07/23 00:25:30;;;;;;;6.85;3.10;;;15.10;84.70;;;;;;6185275;23;20329;-77
2021/07/23 00:27:57;;;;;;;9.52;3.55;;;15.10;84.80;;;;;;6186695;23;20025;-76
2021/07/23 00:30:25;;;;;;;9.93;4.15;;;15.10;84.70;;;;;;6185898;23;20025;-76
2021/07/23 00:32:53;;;;;;;6.95;3.50;;;15.10;84.70;;;;;;6190538;23;20109;-77
2021/07/23 00:35:21;;;;;;;9.10;3.97;;;15.10;84.50;;;;;;6188912;23;20017;-77
2021/07/23 00:37:50;;;;;;;8.15;3.80;;;15.20;84.30;;;;;;6187487;23;20263;-76
2021/07/23 00:40:18;;;;;;;9.80;3.63;;;15.10;84.50;;;;;;6210507;23;20017;-76
2021/07/23 00:42:45;;;;;;;8.07;3.53;;;15.10;84.60;;;;;;6188911;23;20418;-77
2021/07/23 00:45:13;;;;;;;10.50;3.92;;;15.10;84.70;;;;;;6214991;23;20036;-77
2021/07/23 00:47:44;;;;;;;9.93;4.38;;;15.10;84.50;;;;;;6189526;23;20035;-77
2021/07/23 00:50:13;;;;;;;8.77;4.03;;;15.10;84.40;;;;;;6214418;23;20032;-76
2021/07/23 00:52:40;;;;;;;11.40;3.95;;;15.00;84.80;;;;;;6210759;23;20028;-76
2021/07/23 00:55:12;;;;;;;8.45;4.00;;;15.00;85.10;;;;;;6213341;23;20092;-76
2021/07/23 00:57:42;;;;;;;8.80;4.38;;;15.00;85.00;;;;;;6187505;23;20116;-76
2021/07/23 01:00:10;;;;;;;9.75;4.35;;;15.00;85.10;;;;;;6182948;23;20013;-77
2021/07/23 01:02:53;;;;;;;8.80;4.30;;;14.90;85.10;;;;;;6212799;23;20379;-76
2021/07/23 01:05:22;;;;;;;9.07;3.53;;;14.90;85.20;;;;;;6189805;23;20029;-76
2021/07/23 01:07:50;;;;;;;10.77;3.55;;;14.90;85.10;;;;;;6188515;23;20093;-76
2021/07/23 01:10:20;;;;;;;6.72;3.38;;;14.90;85.00;;;;;;6212839;23;20336;-76
2021/07/23 01:13:05;;;;;;;9.30;3.90;;;14.90;84.80;;;;;;6187938;23;20028;-77
2021/07/23 01:15:41;;;;;;;7.22;3.25;;;14.90;84.50;;;;;;6188264;23;20056;-76
2021/07/23 01:18:09;;;;;;;7.30;3.40;;;14.80;84.40;;;;;;6188695;23;20032;-77
2021/07/23 01:20:40;;;;;;;10.48;3.25;;;14.80;84.60;;;;;;6213622;23;20044;-76
2021/07/23 01:23:09;;;;;;;8.27;3.67;;;14.70;84.90;;;;;;6213915;23;20037;-76
2021/07/23 01:25:43;;;;;;;7.65;3.25;;;14.60;85.00;;;;;;6189000;23;20020;-77
2021/07/23 01:28:10;;;;;;;8.60;3.70;;;14.50;84.90;;;;;;6189387;23;20040;-77
2021/07/23 01:30:43;;;;;;;9.98;3.75;;;14.50;84.90;;;;;;6187581;23;20156;-77
2021/07/23 01:33:18;;;;;;;10.85;3.53;;;14.40;85.10;;;;;;6185958;23;20021;-77
2021/07/23 01:35:46;;;;;;;7.30;3.35;;;14.50;85.30;;;;;;6187901;23;20025;-77
2021/07/23 01:38:15;;;;;;;7.20;3.45;;;14.50;85.20;;;;;;6212649;23;20028;-76
2021/07/23 01:40:46;;;;;;;9.02;4.50;;;14.40;85.30;;;;;;6190588;23;20021;-76
2021/07/23 01:43:14;;;;;;;;;;;14.40;85.10;;;;;;6189434;23;20465;-77
2021/07/23 01:45:41;;;;;;;7.32;2.97;;;14.40;84.80;;;;;;6186995;23;19920;-76
2021/07/23 01:48:27;;;;;;;9.27;3.45;;;14.50;84.80;;;;;;6186172;23;20347;-76
2021/07/23 01:50:54;;;;;;;8.13;3.42;;;14.40;84.90;;;;;;6211844;23;20376;-76
2021/07/23 01:53:22;;;;;;;7.47;3.20;;;14.30;85.10;;;;;;6208853;23;20032;-76
2021/07/23 01:55:55;;;;;;;8.82;3.22;;;14.40;85.10;;;;;;6184954;23;20029;-76
2021/07/23 01:58:23;;;;;;;9.38;3.60;;;14.30;85.10;;;;;;6208721;23;20029;-77
2021/07/23 02:00:51;;;;;;;8.80;3.38;;;14.30;85.00;;;;;;6206864;23;20025;-77
2021/07/23 02:03:26;;;;;;;8.02;3.63;;;14.30;85.10;;;;;;6162756;23;20063;-76
2021/07/23 02:05:55;;;;;;;9.07;3.60;;;14.30;85.10;;;;;;6209832;23;20029;-76
2021/07/23 02:08:23;;;;;;;7.30;3.72;;;14.20;85.40;;;;;;6186455;23;20336;-77
2021/07/23 02:10:53;;;;;;;10.13;4.03;;;14.20;85.30;;;;;;6185137;23;20063;-76
2021/07/23 02:13:23;;;;;;;9.00;3.88;;;14.20;85.40;;;;;;6185561;23;20021;-77
2021/07/23 02:15:52;;;;;;;8.30;3.33;;;14.10;85.40;;;;;;6185083;23;20402;-77
2021/07/23 02:18:24;;;;;;;10.18;3.08;;;14.20;85.30;;;;;;6184935;23;20328;-77
2021/07/23 02:20:54;;;;;;;8.38;3.58;;;14.20;85.30;;;;;;6190006;23;20017;-76
2021/07/23 02:23:25;;;;;;;6.05;3.08;;;14.10;85.30;;;;;;6189446;23;20080;-76
2021/07/23 02:25:53;;;;;;;7.90;2.95;;;14.10;85.30;;;;;;6211293;23;20475;-76
2021/07/23 02:28:23;;;;;;;8.77;3.92;;;14.00;85.20;;;;;;6186736;23;20302;-76
2021/07/23 02:30:55;;;;;;;7.63;3.60;;;14.00;85.50;;;;;;6213043;23;20023;-76
2021/07/23 02:33:25;;;;;;;8.60;3.40;;;14.00;85.80;;;;;;6213251;23;20045;-76
2021/07/23 02:36:06;;;;;;;6.90;3.40;;;14.10;86.10;;;;;;6185868;23;20035;-77
2021/07/23 02:38:36;;;;;;;10.57;3.53;;;14.00;86.20;;;;;;6187577;23;20036;-76
2021/07/23 02:41:08;;;;;;;9.30;4.05;;;14.00;86.20;;;;;;6189217;23;20020;-76
2021/07/23 02:43:38;;;;;;;9.13;4.80;;;14.00;86.20;;;;;;6187158;23;20029;-76
2021/07/23 02:46:07;;;;;;;12.02;3.88;;;14.00;86.40;;;;;;6188895;23;20020;-76
2021/07/23 02:48:36;;;;;;;7.77;3.37;;;13.90;86.60;;;;;;6189841;23;20029;-77
2021/07/23 02:51:05;;;;;;;10.90;3.72;;;13.90;86.70;;;;;;6215242;23;20025;-77
2021/07/23 02:53:37;;;;;;;7.57;3.42;;;13.90;86.80;;;;;;6189050;23;20029;-77
2021/07/23 02:56:07;;;;;;;8.68;3.53;;;13.80;87.00;;;;;;6187029;23;20021;-77
2021/07/23 02:58:40;;;;;;;8.40;3.60;;;13.80;87.00;;;;;;6186694;23;20017;-76
2021/07/23 03:01:10;;;;;;;12.27;4.50;;;13.80;87.30;;;;;;6185885;23;20025;-77
2021/07/23 03:03:40;;;;;;;9.38;4.45;;;13.80;87.00;;;;;;6212957;23;20051;-77
2021/07/23 03:06:09;;;;;;;8.82;3.83;;;13.90;87.00;;;;;;6189883;23;20100;-77
2021/07/23 03:08:39;;;;;;;12.00;4.13;;;14.00;86.80;;;;;;6186822;23;20032;-77
2021/07/23 03:11:09;;;;;;;9.73;4.07;;;13.90;86.80;;;;;;6188109;23;20025;-77
2021/07/23 03:13:48;;;;;;;8.43;3.45;;;13.90;87.00;;;;;;6189291;23;20048;-76
2021/07/23 03:16:17;;;;;;;7.85;3.58;;;13.80;87.10;;;;;;6190373;23;20072;-77
2021/07/23 03:18:47;;;;;;;8.65;3.78;;;13.70;87.20;;;;;;6190233;23;20325;-77
2021/07/23 03:21:22;;;;;;;6.70;3.58;;;13.70;87.10;;;;;;6190744;23;20209;-76
2021/07/23 03:23:53;;;;;;;8.48;3.60;;;13.70;87.00;;;;;;6190442;23;20181;-76
2021/07/23 03:26:22;;;;;;;10.40;3.95;;;13.60;86.50;;;;;;6190383;23;20039;-76
2021/07/23 03:28:55;;;;;;;7.72;3.42;;;13.60;86.60;;;;;;6215772;23;20025;-77
2021/07/23 03:31:32;;;;;;;7.60;3.55;;;13.60;86.70;;;;;;6189606;23;20433;-76
2021/07/23 03:34:08;;;;;;;8.88;3.72;;;13.50;86.80;;;;;;6188215;23;20029;-76
2021/07/23 03:36:53;;;;;;;8.75;3.58;;;13.50;86.90;;;;;;6188285;23;20021;-77
2021/07/23 03:39:30;;;;;;;8.40;3.35;;;13.50;86.90;;;;;;6187871;23;20284;-77
2021/07/23 03:41:59;;;;;;;8.45;3.80;;;13.50;86.90;;;;;;6187852;23;20139;-77
2021/07/23 03:44:31;;;;;;;7.90;3.53;;;13.50;86.80;;;;;;6188061;23;20024;-77
2021/07/23 03:46:59;;;;;;;8.65;3.72;;;13.60;87.00;;;;;;6186446;23;20256;-77
2021/07/23 03:49:28;;;;;;;7.70;3.85;;;13.60;86.70;;;;;;6186181;23;20036;-77
2021/07/23 03:51:59;;;;;;;10.13;4.38;;;13.60;86.80;;;;;;6161460;23;20029;-77
2021/07/23 03:54:30;;;;;;;9.63;3.65;;;13.60;86.80;;;;;;6187851;23;20077;-77
2021/07/23 03:57:00;;;;;;;8.77;3.88;;;13.70;86.60;;;;;;6186927;23;20041;-77
2021/07/23 03:59:35;;;;;;;6.57;3.47;;;13.60;86.60;;;;;;6188309;23;20068;-77
2021/07/23 04:02:06;;;;;;;12.50;4.63;;;13.70;86.60;;;;;;6183849;23;20021;-77
2021/07/23 04:04:40;;;;;;;10.18;3.67;;;13.70;86.70;;;;;;6186922;23;20036;-77
2021/07/23 04:07:08;;;;;;;8.35;3.70;;;13.70;86.70;;;;;;6190267;23;20378;-77
2021/07/23 04:09:37;;;;;;;7.78;3.08;;;13.70;86.50;;;;;;6189161;23;20025;-77
2021/07/23 04:12:06;;;;;;;8.55;3.75;;;13.70;86.60;;;;;;6189986;23;20080;-77
2021/07/23 04:14:41;;;;;;;10.25;4.20;;;13.70;86.40;;;;;;6210694;23;20216;-77
2021/07/23 04:17:11;;;;;;;8.23;3.17;;;13.70;86.50;;;;;;6162893;23;20029;-77
2021/07/23 04:19:40;;;;;;;8.07;3.90;;;13.70;86.50;;;;;;6189487;23;20153;-77
2021/07/23 04:22:09;;;;;;;9.25;4.35;;;13.80;86.30;;;;;;6188531;23;20017;-77
2021/07/23 04:25:05;;;;;;;9.90;3.38;;;13.70;86.10;;;;;;6191392;23;20351;-77
2021/07/23 04:27:33;;;;;;;9.63;3.47;;;13.70;86.00;;;;;;6193648;23;20017;-77
2021/07/23 04:30:32;;;;;;;9.09;3.27;;;13.80;86.00;;;;;;2852886;23;10150134;-77
2021/07/23 04:33:19;;;;;;;11.20;4.13;;;13.70;85.80;;;;;;4486707;23;10001332;-77
2021/07/23 04:36:06;;;;;;;9.68;4.25;;;13.80;86.00;;;;;;6210314;23;20402;-77
2021/07/23 04:38:34;;;;;;;7.22;3.70;;;13.80;85.70;;;;;;6190534;23;20025;-76
2021/07/23 04:41:05;;;;;;;8.10;3.50;;;13.90;85.90;;;;;;6189037;23;20344;-77
2021/07/23 04:43:39;;;;;;;8.93;3.90;;;13.90;85.90;;;;;;6188082;23;20028;-77
2021/07/23 04:46:10;;;;;;;10.95;4.03;;;14.00;85.80;;;;;;6189384;23;20063;-77
2021/07/23 04:48:46;;;;;;;10.18;4.15;;;14.00;85.90;;;;;;6188842;23;20028;-77
2021/07/23 04:51:33;;;;;;;8.20;3.83;;;14.00;85.80;;;;;;6187905;23;20024;-77
2021/07/23 04:54:20;;;;;;;8.80;4.20;;;14.00;85.70;;;;;;6193693;23;20083;-77
2021/07/23 04:56:53;;;;;;;11.45;3.80;;;14.10;85.70;;;;;;6190335;23;20037;-77
2021/07/23 04:59:22;;;;;;;8.55;3.90;;;14.20;85.60;;;;;;6214989;23;20176;-77
2021/07/23 05:01:51;;;;;;;7.07;3.47;;;14.20;85.50;;;;;;6188108;23;20317;-77
2021/07/23 05:04:20;;;;;;;11.07;3.92;;;14.20;85.30;;;;;;6190910;23;20289;-77
2021/07/23 05:06:48;;;;;;;10.80;4.25;;;14.20;85.20;;;;;;6186393;23;20047;-77
2021/07/23 05:09:16;;;;;;;11.48;3.75;;;14.30;85.00;;;;;;6184394;23;20035;-77
2021/07/23 05:11:47;;;;;;;7.88;3.65;;;14.30;85.10;;;;;;6184181;23;20036;-76
2021/07/23 05:14:17;;;;;;;11.15;3.78;;;14.40;85.10;;;;;;6214377;23;20025;-77
2021/07/23 05:16:45;;;;;;;9.88;3.90;;;14.40;84.90;;;;;;6185763;23;20088;-77
2021/07/23 05:19:16;;;;;;;8.07;4.05;;;14.40;84.90;;;;;;6188322;23;20230;-77
2021/07/23 05:21:45;;;;;;;9.20;3.90;;;14.50;85.00;;;;;;6189226;23;20021;-77
2021/07/23 05:24:14;;;;;;;7.90;4.00;;;14.60;84.70;;;;;;6188349;23;20032;-77
2021/07/23 05:26:41;;;;;;;10.30;4.65;;;14.60;84.60;;;;;;6188131;23;20017;-77
2021/07/23 05:29:10;;;;;;;11.52;4.28;;;14.70;84.40;;;;;;6189397;23;20040;-77
2021/07/23 05:31:40;;;;;;;12.48;4.35;;;14.80;84.20;;;;;;6189598;23;20056;-77
2021/07/23 05:34:07;;;;;;;12.35;4.15;;;14.80;84.20;;;;;;6186083;23;20028;-77
2021/07/23 05:36:36;;;;;;;10.80;4.47;;;14.90;84.10;;;;;;6210213;23;20019;-77
2021/07/23 05:39:03;;;;;;;9.15;4.07;;;15.00;84.10;;;;;;6186093;23;20276;-77
2021/07/23 05:41:31;;;;;;;8.15;4.13;;;15.00;83.70;;;;;;6186933;23;20024;-77
2021/07/23 05:43:58;;;;;;;11.63;4.35;;;15.10;83.60;;;;;;6186913;23;20031;-78
2021/07/23 05:46:26;;;;;;;9.52;4.65;;;15.10;83.40;;;;;;6185490;23;20322;-77
2021/07/23 05:48:53;;;;;;;9.10;3.90;;;15.20;83.30;;;;;;6212408;23;20063;-77
2021/07/23 05:51:20;;;;;;;8.60;3.95;;;15.30;83.10;;;;;;6188231;23;20021;-77
2021/07/23 05:53:49;;;;;;;10.75;4.50;;;15.30;83.10;;;;;;6186483;23;20046;-77
2021/07/23 05:56:16;;;;;;;8.60;4.03;;;15.40;82.70;;;;;;6210358;23;20051;-77
2021/07/23 05:58:43;;;;;;;8.75;3.83;;;15.50;82.60;;;;;;6186408;23;20378;-77
2021/07/23 06:01:10;;;;;;;11.00;4.35;;;15.60;82.50;;;;;;6183764;23;20020;-77
2021/07/23 06:03:40;;;;;;;8.68;4.18;;;15.70;82.10;;;;;;6211146;23;20301;-77
2021/07/23 06:06:08;;;;;;;14.98;4.30;;;15.70;81.80;;;;;;6187746;23;20024;-77
2021/07/23 06:08:35;;;;;;;10.43;4.03;;;15.80;81.90;;;;;;6184969;23;20346;-77
2021/07/23 06:11:07;;;;;;;11.73;3.95;;;15.90;81.70;;;;;;6188871;23;20052;-77
2021/07/23 06:13:36;;;;;;;11.40;4.47;;;16.00;81.40;;;;;;6187962;23;20320;-77
2021/07/23 06:16:04;;;;;;;8.75;3.78;;;16.00;81.40;;;;;;6187395;23;20077;-77
2021/07/23 06:18:32;;;;;;;11.82;4.80;;;16.10;81.30;;;;;;6189859;23;20105;-77
2021/07/23 06:20:59;;;;;;;10.98;4.32;;;16.20;81.10;;;;;;6185993;23;20017;-77
2021/07/23 06:23:26;;;;;;;9.38;4.38;;;16.20;81.10;;;;;;6185062;23;20036;-77
2021/07/23 06:25:54;;;;;;;8.07;4.50;;;16.30;80.80;;;;;;6189392;23;20025;-77
2021/07/23 06:28:22;;;;;;;10.55;4.97;;;16.40;80.60;;;;;;6187897;23;20379;-77
2021/07/23 06:30:49;;;;;;;13.88;5.07;;;16.50;80.40;;;;;;6191191;23;20016;-77
2021/07/23 06:33:16;;;;;;;11.02;4.60;;;16.60;80.30;;;;;;6188154;23;20463;-77
2021/07/23 06:35:44;;;;;;;9.70;4.40;;;16.60;79.90;;;;;;6187424;23;20021;-77
2021/07/23 06:38:11;;;;;;;10.60;4.05;;;16.70;80.00;;;;;;6189623;23;20359;-77
2021/07/23 06:40:38;;;;;;;10.10;4.18;;;16.80;79.80;;;;;;6188231;23;20055;-77
2021/07/23 06:43:05;;;;;;;13.98;5.20;;;16.90;79.40;;;;;;6187999;23;20221;-77
2021/07/23 06:45:35;;;;;;;15.75;4.45;;;17.00;79.10;;;;;;6212335;23;20027;-77
2021/07/23 06:48:02;;;;;;;14.02;4.57;;;17.10;79.20;;;;;;6187597;23;20028;-76
2021/07/23 06:50:31;;;;;;;13.75;4.05;;;17.20;79.20;;;;;;6183835;23;20286;-77
2021/07/23 06:52:58;;;;;;;9.55;4.07;;;17.30;79.00;;;;;;6188277;23;20020;-77
2021/07/23 06:55:26;;;;;;;8.93;4.13;;;17.30;78.60;;;;;;6189821;23;20221;-77
2021/07/23 06:57:53;;;;;;;9.77;4.38;;;17.40;78.60;;;;;;6188139;23;20392;-77
2021/07/23 07:00:20;;;;;;;10.02;4.43;;;17.50;77.90;;;;;;6183784;23;20025;-78
2021/07/23 07:02:49;;;;;;;13.05;4.95;;;17.60;78.20;;;;;;6187172;23;20013;-77
2021/07/23 07:05:17;;;;;;;8.52;4.22;;;17.70;78.20;;;;;;6190851;23;20222;-77
2021/07/23 07:07:44;;;;;;;8.27;3.75;;;17.90;77.80;;;;;;6189573;23;20016;-77
2021/07/23 07:10:12;;;;;;;11.05;4.32;;;18.00;77.30;;;;;;6185757;23;20196;-77
2021/07/23 07:12:39;;;;;;;10.02;4.38;;;18.10;76.70;;;;;;6186004;23;20013;-77
2021/07/23 07:15:07;;;;;;;10.77;4.78;;;18.20;76.40;;;;;;6187285;23;20032;-77
2021/07/23 07:17:35;;;;;;;10.55;3.67;;;18.30;76.00;;;;;;6186221;23;20131;-77
2021/07/23 07:20:04;;;;;;;9.90;4.20;;;18.40;75.70;;;;;;6184543;23;20032;-78
2021/07/23 07:22:31;;;;;;;8.57;4.38;;;18.50;75.70;;;;;;6185263;23;20021;-77
2021/07/23 07:24:58;;;;;;;10.68;4.65;;;18.60;75.70;;;;;;6186731;23;20059;-77
2021/07/23 07:27:25;;;;;;;12.57;4.38;;;18.80;75.30;;;;;;6208170;23;20040;-77
2021/07/23 07:29:52;;;;;;;10.63;4.18;;;18.90;74.90;;;;;;6186957;23;20017;-77
2021/07/23 07:32:20;;;;;;;10.00;4.07;;;19.10;73.80;;;;;;6186399;23;20040;-76
2021/07/23 07:34:47;;;;;;;8.55;4.28;;;19.10;74.10;;;;;;6185394;23;20032;-76
2021/07/23 07:37:15;;;;;;;10.75;4.45;;;19.20;73.80;;;;;;6186797;23;20211;-78
2021/07/23 07:39:42;;;;;;;11.15;5.15;;;19.40;73.80;;;;;;6184449;23;20056;-78
2021/07/23 07:42:09;;;;;;;7.38;3.47;;;19.50;73.20;;;;;;6185992;23;20027;-78
2021/07/23 07:44:39;;;;;;;;;;;19.60;72.90;;;;;;6187587;23;20081;-78
2021/07/23 07:47:06;;;;;;;11.82;4.75;;;19.70;72.90;;;;;;6209782;23;19973;-78
2021/07/23 07:49:34;;;;;;;9.45;4.50;;;19.80;72.30;;;;;;6185875;23;20017;-78
2021/07/23 07:52:01;;;;;;;8.20;4.15;;;19.80;72.90;;;;;;6184337;23;20037;-79
2021/07/23 07:54:32;;;;;;;13.60;4.63;;;19.90;72.10;;;;;;6184350;23;20228;-78
2021/07/23 07:57:06;;;;;;;7.95;3.67;;;20.10;71.60;;;;;;6188835;23;20025;-78
2021/07/23 07:59:34;;;;;;;7.90;3.92;;;20.30;70.90;;;;;;6185471;23;20081;-77
2021/07/23 08:02:01;;;;;;;8.07;3.80;;;20.60;70.70;;;;;;6179475;23;20312;-76
2021/07/23 08:04:32;;;;;;;15.55;7.30;;;20.80;69.60;;;;;;6178352;23;20028;-76
2021/07/23 08:07:00;;;;;;;8.45;4.25;;;21.00;69.00;;;;;;6184674;23;20048;-76
2021/07/23 08:09:35;;;;;;;9.68;4.30;;;21.10;69.00;;;;;;6187354;23;20321;-76
2021/07/23 08:12:04;;;;;;;11.38;4.38;;;21.20;68.70;;;;;;6186820;23;20071;-76
2021/07/23 08:14:33;;;;;;;7.28;3.67;;;21.40;67.50;;;;;;6188558;23;20036;-76
2021/07/23 08:17:01;;;;;;;10.50;3.88;;;21.50;66.90;;;;;;6186751;23;20020;-76
2021/07/23 08:19:28;;;;;;;9.05;4.13;;;21.60;66.70;;;;;;6208886;23;20262;-76
2021/07/23 08:21:55;;;;;;;13.90;4.60;;;21.90;65.50;;;;;;6187992;23;20042;-78
2021/07/23 08:24:23;;;;;;;7.80;3.33;;;22.10;64.60;;;;;;6188030;23;20044;-77
2021/07/23 08:26:50;;;;;;;9.45;3.83;;;22.20;63.70;;;;;;6182977;23;20041;-77
2021/07/23 08:29:18;;;;;;;7.10;3.53;;;22.50;63.40;;;;;;6181759;23;20033;-77
2021/07/23 08:31:46;;;;;;;9.27;4.22;;;22.60;62.70;;;;;;6210878;23;20021;-77
2021/07/23 08:34:14;;;;;;;7.05;3.40;;;22.70;62.60;;;;;;6186509;23;20105;-78
2021/07/23 08:36:41;;;;;;;7.93;3.70;;;22.80;62.00;;;;;;6210718;23;20364;-78
2021/07/23 08:39:12;;;;;;;10.32;4.35;;;23.00;62.10;;;;;;6187067;23;20017;-77
2021/07/23 08:41:39;;;;;;;9.70;4.15;;;23.10;60.70;;;;;;6187973;23;20024;-78
2021/07/23 08:44:07;;;;;;;9.00;3.95;;;23.20;60.20;;;;;;6188415;23;20032;-77
2021/07/23 08:46:36;;;;;;;9.88;3.95;;;23.30;60.40;;;;;;6186592;23;20194;-78
2021/07/23 08:49:03;;;;;;;8.07;3.58;;;23.50;58.80;;;;;;6186817;23;20044;-77
2021/07/23 08:51:30;;;;;;;9.07;3.85;;;23.70;58.70;;;;;;6187401;23;20371;-78
2021/07/23 08:53:57;;;;;;;15.70;4.10;;;23.90;56.30;;;;;;6188081;23;20017;-77
2021/07/23 08:56:25;;;;;;;15.85;3.95;;;24.00;55.20;;;;;;6189706;23;20363;-78
2021/07/23 08:58:52;;;;;;;28.30;4.68;;;24.10;55.10;;;;;;6189132;23;20060;-78
2021/07/23 09:01:21;;;;;;;7.60;3.60;;;24.10;54.80;;;;;;6184154;23;20071;-78
2021/07/23 09:03:50;;;;;;;7.55;3.65;;;24.20;54.40;;;;;;6188437;23;20316;-78
2021/07/23 09:06:18;;;;;;;8.88;3.75;;;24.30;54.50;;;;;;6187422;23;20040;-78
2021/07/23 09:08:49;;;;;;;10.52;3.80;;;24.50;52.80;;;;;;6212926;23;20029;-78
2021/07/23 09:11:26;;;;;;;8.48;3.60;;;24.60;51.70;;;;;;6186287;23;20128;-77
2021/07/23 09:14:10;;;;;;;8.15;3.58;;;24.60;51.10;;;;;;6187371;23;20036;-78
2021/07/23 09:16:37;;;;;;;10.45;3.78;;;24.70;51.70;;;;;;6185903;23;20256;-78
2021/07/23 09:19:11;;;;;;;9.07;4.15;;;25.00;49.50;;;;;;6211856;23;20077;-77
2021/07/23 09:21:40;;;;;;;7.65;3.72;;;25.00;47.90;;;;;;6186618;23;20052;-77
2021/07/23 09:24:09;;;;;;;8.15;3.55;;;25.10;47.40;;;;;;6187494;23;20019;-78
2021/07/23 09:26:41;;;;;;;;;;;25.20;49.50;;;;;;6184969;23;20193;-78
2021/07/23 09:29:08;;;;;;;8.93;4.32;;;25.30;49.10;;;;;;6187909;23;19946;-79
2021/07/23 09:31:36;;;;;;;13.73;4.05;;;25.50;46.50;;;;;;6190383;23;20017;-79
2021/07/23 09:34:05;;;;;;;8.93;3.72;;;25.40;42.90;;;;;;6187172;23;20024;-78
2021/07/23 09:36:34;;;;;;;7.43;3.58;;;25.50;45.20;;;;;;6189310;23;20119;-78
2021/07/23 09:39:02;;;;;;;9.50;3.95;;;25.50;43.30;;;;;;6186396;23;20394;-78
2021/07/23 09:41:30;;;;;;;9.25;3.88;;;25.60;43.40;;;;;;6189491;23;20024;-78
2021/07/23 09:44:00;;;;;;;10.77;4.15;;;25.60;44.10;;;;;;6190122;23;20205;-78
2021/07/23 09:46:33;;;;;;;8.30;3.83;;;25.60;43.30;;;;;;6189081;23;20240;-78
2021/07/23 09:49:03;;;;;;;7.95;4.15;;;25.70;44.10;;;;;;6191053;23;20025;-78
2021/07/23 09:51:30;;;;;;;10.50;3.60;;;25.70;44.60;;;;;;6189573;23;20060;-78
2021/07/23 09:53:59;;;;;;;9.07;4.88;;;26.00;44.00;;;;;;6190285;23;20024;-78
2021/07/23 09:56:27;;;;;;;9.45;4.40;;;26.10;43.70;;;;;;6214467;23;20041;-78
2021/07/23 09:59:01;;;;;;;8.32;4.25;;;26.10;44.80;;;;;;6189302;23;20025;-78
2021/07/23 10:01:30;;;;;;;8.18;4.50;;;26.40;45.00;;;;;;6187872;23;20025;-78
2021/07/23 10:04:03;;;;;;;10.27;5.15;;;26.60;44.50;;;;;;6190696;23;20013;-77
2021/07/23 10:06:44;;;;;;;7.70;3.88;;;26.70;43.40;;;;;;6192761;23;20329;-77
2021/07/23 10:09:15;;;;;;;8.73;3.95;;;26.90;42.50;;;;;;6189596;23;20036;-78
2021/07/23 10:11:46;;;;;;;8.85;4.75;;;26.60;43.20;;;;;;6189291;23;20101;-77
2021/07/23 10:14:19;;;;;;;8.82;4.60;;;27.10;42.50;;;;;;6212872;23;20025;-78
2021/07/23 10:16:47;;;;;;;7.97;3.75;;;27.50;41.90;;;;;;6192357;23;20041;-76
2021/07/23 10:19:15;;;;;;;9.57;4.60;;;28.20;42.40;;;;;;6186276;23;20017;-77
2021/07/23 10:21:42;;;;;;;7.57;4.03;;;28.60;40.90;;;;;;6191271;23;20024;-77
2021/07/23 10:24:10;;;;;;;9.02;4.13;;;29.30;39.20;;;;;;6190297;23;20028;-77
2021/07/23 10:26:39;;;;;;;10.25;4.70;;;30.10;38.50;;;;;;6189148;23;20017;-78
2021/07/23 10:29:08;;;;;;;;;;;30.50;36.30;;;;;;6191519;23;20208;-78
2021/07/23 10:31:48;;;;;;;9.80;4.43;;;31.10;34.90;;;;;;6189803;23;19919;-78
2021/07/23 10:34:32;;;;;;;7.03;3.80;;;31.80;35.50;;;;;;6190265;23;20021;-78
2021/07/23 10:37:00;;;;;;;8.57;4.55;;;32.60;33.70;;;;;;6189770;23;20024;-77
2021/07/23 10:39:30;;;;;;;10.15;4.40;;;32.70;32.70;;;;;;6187832;23;20071;-77
2021/07/23 10:42:42;;;;;;;7.40;4.10;;;33.60;31.30;;;;;;6189888;23;20032;-78
2021/07/23 10:45:12;;;;;;;10.13;5.15;;;34.30;29.50;;;;;;6191414;23;20091;-77
2021/07/23 10:47:44;;;;;;;8.95;4.50;;;34.30;28.20;;;;;;6187215;23;20087;-77
2021/07/23 10:50:31;;;;;;;8.73;5.03;;;34.90;29.50;;;;;;6187039;23;20025;-77
2021/07/23 10:53:38;;;;;;;6.72;3.70;;;35.30;26.50;;;;;;6185262;23;20021;-76
2021/07/23 10:56:09;;;;;;;7.80;4.03;;;34.80;28.10;;;;;;6185986;23;20029;-77
2021/07/23 10:58:37;;;;;;;10.50;4.55;;;35.50;28.60;;;;;;6188710;23;20219;-77
2021/07/23 11:01:05;;;;;;;7.35;4.68;;;36.20;26.20;;;;;;6181848;23;20248;-77
2021/07/23 11:03:58;;;;;;;8.33;4.40;;;36.60;26.50;;;;;;6188749;23;20332;-77
2021/07/23 11:06:33;;;;;;;7.68;4.57;;;37.50;25.60;;;;;;6188424;23;20327;-77
2021/07/23 11:09:04;;;;;;;10.75;4.90;;;37.90;23.20;;;;;;6186413;23;20256;-78
2021/07/23 11:11:32;;;;;;;7.60;4.35;;;37.90;23.50;;;;;;6189562;23;20233;-77
2021/07/23 11:14:16;;;;;;;8.35;5.15;;;38.20;22.80;;;;;;6187329;23;20036;-77
2021/07/23 11:16:43;;;;;;;8.35;5.00;;;38.30;23.30;;;;;;6205905;23;20028;-77
2021/07/23 11:19:22;;;;;;;8.32;5.03;;;38.30;20.70;;;;;;6186257;23;20024;-77
2021/07/23 11:21:50;;;;;;;12.40;5.10;;;36.70;23.30;;;;;;6188066;23;20304;-77
2021/07/23 11:24:17;;;;;;;8.50;4.68;;;37.30;24.00;;;;;;6187010;23;20200;-78
2021/07/23 11:26:52;;;;;;;7.70;5.05;;;39.10;22.60;;;;;;6210950;23;20020;-78
2021/07/23 11:29:36;;;;;;;8.25;4.97;;;39.60;22.00;;;;;;6187151;23;20027;-78
2021/07/23 11:32:07;;;;;;;8.40;5.03;;;38.50;22.90;;;;;;6187888;23;20037;-77
2021/07/23 11:34:38;;;;;;;7.82;5.07;;;39.20;20.90;;;;;;6186585;23;20025;-77
2021/07/23 11:37:16;;;;;;;7.88;5.15;;;39.20;21.30;;;;;;6211185;23;20029;-78
2021/07/23 11:39:53;;;;;;;;;;;39.80;20.10;;;;;;6190623;23;20305;-77
2021/07/23 11:42:21;;;;;;;8.40;4.43;;;39.50;19.70;;;;;;6188434;23;19924;-77
2021/07/23 11:44:54;;;;;;;7.73;4.67;;;40.60;19.90;;;;;;6189686;23;20078;-77
2021/07/23 11:47:31;;;;;;;10.80;5.30;;;40.70;20.70;;;;;;6188067;23;20021;-77
2021/07/23 11:50:01;;;;;;;8.23;4.93;;;41.00;19.80;;;;;;6187537;23;20072;-77
2021/07/23 11:52:28;;;;;;;9.15;4.65;;;41.20;18.80;;;;;;6188801;23;20020;-77
2021/07/23 11:54:57;;;;;;;7.38;4.78;;;40.50;18.90;;;;;;6189288;23;20025;-76
2021/07/23 11:57:25;;;;;;;11.45;5.25;;;39.20;19.40;;;;;;6192500;23;20324;-78
2021/07/23 11:59:53;;;;;;;9.52;5.05;;;39.20;19.10;;;;;;6191550;23;20248;-77
2021/07/23 12:02:26;;;;;;;9.05;5.43;;;39.70;19.00;;;;;;6189075;23;20021;-77
2021/07/23 12:05:06;;;;;;;9.85;4.70;;;39.70;18.40;;;;;;6191978;23;20286;-78
2021/07/23 12:07:34;;;;;;;8.48;4.63;;;39.50;19.90;;;;;;6193369;23;20023;-78
2021/07/23 12:10:05;;;;;;;9.13;4.97;;;40.50;19.70;;;;;;6192326;23;20080;-77
2021/07/23 12:12:35;;;;;;;6.93;4.43;;;40.80;18.20;;;;;;6193022;23;20451;-78
2021/07/23 12:15:09;;;;;;;8.43;4.90;;;41.70;16.90;;;;;;6216273;23;20087;-78
2021/07/23 12:17:38;;;;;;;9.27;4.95;;;41.20;17.70;;;;;;6193093;23;20017;-78
2021/07/23 12:20:06;;;;;;;8.02;4.38;;;40.90;18.30;;;;;;6192532;23;20035;-78
2021/07/23 12:22:34;;;;;;;7.88;4.88;;;41.40;17.80;;;;;;6188330;23;20025;-77
2021/07/23 12:25:15;;;;;;;8.73;4.78;;;41.10;19.50;;;;;;6191946;23;20083;-78
2021/07/23 12:27:42;;;;;;;9.02;4.70;;;42.10;18.50;;;;;;6190024;23;20140;-77
2021/07/23 12:30:32;;;;;;;9.13;5.15;;;42.60;18.80;;;;;;6215193;23;20028;-77
2021/07/23 12:33:11;;;;;;;8.20;5.00;;;43.00;18.50;;;;;;6193864;23;20352;-77
2021/07/23 12:35:38;;;;;;;7.95;4.78;;;42.80;18.10;;;;;;6193457;23;20371;-77
2021/07/23 12:38:07;;;;;;;9.07;4.80;;;42.90;18.40;;;;;;6193045;23;20285;-77
2021/07/23 12:40:47;;;;;;;8.75;5.03;;;43.10;18.70;;;;;;6190682;23;20013;-77
2021/07/23 12:43:15;;;;;;;8.32;5.15;;;43.10;18.20;;;;;;6189883;23;20048;-78
2021/07/23 12:45:44;;;;;;;9.63;5.25;;;43.40;18.20;;;;;;6191346;23;20289;-78
2021/07/23 12:48:12;;;;;;;8.27;5.35;;;43.40;18.40;;;;;;6190733;23;20071;-77
2021/07/23 12:50:43;;;;;;;7.65;4.60;;;44.30;17.30;;;;;;6188939;23;20021;-77
2021/07/23 12:53:12;;;;;;;7.57;4.90;;;44.10;17.10;;;;;;6187844;23;20309;-77
2021/07/23 12:55:40;;;;;;;9.07;5.72;;;44.40;17.00;;;;;;6191148;23;20009;-77
2021/07/23 12:58:08;;;;;;;8.03;4.90;;;43.80;17.40;;;;;;6214282;23;20021;-78
2021/07/23 13:00:36;;;;;;;9.05;5.03;;;44.00;17.40;;;;;;6185713;23;20032;-77
2021/07/23 13:03:04;;;;;;;8.00;4.78;;;43.60;17.00;;;;;;6191919;23;20301;-77